sensor_id;sensor_type;location;lat;lon;timestamp;P1;durP1;ratioP1;P2;durP2;ratioP2
26981;SDS011;14533;50.848;4.380;2022-12-05T00:01:58;102.80;;;40.08;;
26981;SDS011;14533;50.848;4.380;2022-12-05T00:04:24;92.82;;;40.78;;
26981;SDS011;14533;50.848;4.380;2022-12-05T00:06:50;97.72;;;39.65;;
26981;SDS011;14533;50.848;4.380;2022-12-05T00:09:15;90.68;;;39.70;;
26981;SDS011;14533;50.848;4.380;2022-12-05T00:11:41;95.85;;;40.95;;
26981;SDS011;14533;50.848;4.380;2022-12-05T00:14:08;94.43;;;37.85;;
26981;SDS011;14533;50.848;4.380;2022-12-05T00:16:37;91.57;;;36.65;;
26981;SDS011;14533;50.848;4.380;2022-12-05T00:19:04;91.40;;;40.03;;
26981;SDS011;14533;50.848;4.380;2022-12-05T00:21:32;92.15;;;38.83;;
26981;SDS011;14533;50.848;4.380;2022-12-05T00:24:00;84.05;;;35.67;;
26981;SDS011;14533;50.848;4.380;2022-12-05T00:26:26;87.38;;;36.45;;
26981;SDS011;14533;50.848;4.380;2022-12-05T00:28:55;99.47;;;37.67;;
26981;SDS011;14533;50.848;4.380;2022-12-05T00:31:21;101.57;;;39.35;;
26981;SDS011;14533;50.848;4.380;2022-12-05T00:33:48;87.90;;;37.83;;
26981;SDS011;14533;50.848;4.380;2022-12-05T00:36:16;88.63;;;37.13;;
26981;SDS011;14533;50.848;4.380;2022-12-05T00:38:54;89.07;;;36.08;;
26981;SDS011;14533;50.848;4.380;2022-12-05T00:41:21;83.32;;;35.83;;
26981;SDS011;14533;50.848;4.380;2022-12-05T00:43:49;89.20;;;37.67;;
26981;SDS011;14533;50.848;4.380;2022-12-05T00:46:16;87.93;;;36.80;;
26981;SDS011;14533;50.848;4.380;2022-12-05T00:48:46;87.15;;;35.55;;
26981;SDS011;14533;50.848;4.380;2022-12-05T00:51:17;88.80;;;34.75;;
26981;SDS011;14533;50.848;4.380;2022-12-05T00:53:44;85.20;;;35.92;;
26981;SDS011;14533;50.848;4.380;2022-12-05T00:56:11;80.47;;;34.45;;
26981;SDS011;14533;50.848;4.380;2022-12-05T00:58:39;76.30;;;32.97;;
26981;SDS011;14533;50.848;4.380;2022-12-05T01:01:06;71.80;;;31.52;;
26981;SDS011;14533;50.848;4.380;2022-12-05T01:03:38;70.20;;;32.90;;
26981;SDS011;14533;50.848;4.380;2022-12-05T01:06:04;80.32;;;33.33;;
26981;SDS011;14533;50.848;4.380;2022-12-05T01:08:31;87.63;;;33.30;;
26981;SDS011;14533;50.848;4.380;2022-12-05T01:10:58;77.45;;;33.85;;
26981;SDS011;14533;50.848;4.380;2022-12-05T01:13:24;75.22;;;33.22;;
26981;SDS011;14533;50.848;4.380;2022-12-05T01:15:51;77.60;;;32.70;;
26981;SDS011;14533;50.848;4.380;2022-12-05T01:18:19;77.55;;;34.50;;
26981;SDS011;14533;50.848;4.380;2022-12-05T01:20:46;83.18;;;32.88;;
26981;SDS011;14533;50.848;4.380;2022-12-05T01:23:13;78.28;;;33.55;;
26981;SDS011;14533;50.848;4.380;2022-12-05T01:25:39;75.13;;;31.80;;
26981;SDS011;14533;50.848;4.380;2022-12-05T01:28:06;77.20;;;33.60;;
26981;SDS011;14533;50.848;4.380;2022-12-05T01:30:36;79.40;;;32.63;;
26981;SDS011;14533;50.848;4.380;2022-12-05T01:33:07;83.13;;;33.70;;
26981;SDS011;14533;50.848;4.380;2022-12-05T01:35:33;77.60;;;32.78;;
26981;SDS011;14533;50.848;4.380;2022-12-05T01:38:00;76.50;;;32.70;;
26981;SDS011;14533;50.848;4.380;2022-12-05T01:40:25;76.68;;;32.95;;
26981;SDS011;14533;50.848;4.380;2022-12-05T01:42:52;69.18;;;31.05;;
26981;SDS011;14533;50.848;4.380;2022-12-05T01:48:25;74.13;;;32.83;;
26981;SDS011;14533;50.848;4.380;2022-12-05T01:50:54;74.57;;;33.55;;
26981;SDS011;14533;50.848;4.380;2022-12-05T01:53:23;82.50;;;34.70;;
26981;SDS011;14533;50.848;4.380;2022-12-05T01:55:50;81.88;;;34.85;;
26981;SDS011;14533;50.848;4.380;2022-12-05T01:58:17;81.78;;;34.08;;
26981;SDS011;14533;50.848;4.380;2022-12-05T02:00:43;86.70;;;35.65;;
26981;SDS011;14533;50.848;4.380;2022-12-05T02:03:11;79.85;;;33.15;;
26981;SDS011;14533;50.848;4.380;2022-12-05T02:08:09;82.03;;;33.75;;
26981;SDS011;14533;50.848;4.380;2022-12-05T02:10:38;84.78;;;33.92;;
26981;SDS011;14533;50.848;4.380;2022-12-05T02:13:12;87.25;;;35.53;;
26981;SDS011;14533;50.848;4.380;2022-12-05T02:15:57;88.22;;;35.55;;
26981;SDS011;14533;50.848;4.380;2022-12-05T02:21:27;86.30;;;34.63;;
26981;SDS011;14533;50.848;4.380;2022-12-05T02:30:22;85.57;;;35.35;;
26981;SDS011;14533;50.848;4.380;2022-12-05T02:35:28;90.60;;;36.55;;
26981;SDS011;14533;50.848;4.380;2022-12-05T02:38:35;89.45;;;36.70;;
26981;SDS011;14533;50.848;4.380;2022-12-05T02:44:05;100.72;;;35.58;;
26981;SDS011;14533;50.848;4.380;2022-12-05T02:46:43;100.90;;;38.55;;
26981;SDS011;14533;50.848;4.380;2022-12-05T02:49:13;96.57;;;38.20;;
26981;SDS011;14533;50.848;4.380;2022-12-05T02:51:45;103.55;;;38.78;;
26981;SDS011;14533;50.848;4.380;2022-12-05T02:54:18;90.78;;;37.15;;
26981;SDS011;14533;50.848;4.380;2022-12-05T02:56:48;96.65;;;38.38;;
26981;SDS011;14533;50.848;4.380;2022-12-05T02:59:14;100.45;;;37.92;;
26981;SDS011;14533;50.848;4.380;2022-12-05T03:01:42;97.65;;;38.70;;
26981;SDS011;14533;50.848;4.380;2022-12-05T03:04:11;105.38;;;37.05;;
26981;SDS011;14533;50.848;4.380;2022-12-05T03:06:42;99.40;;;39.03;;
26981;SDS011;14533;50.848;4.380;2022-12-05T03:12:27;89.03;;;35.40;;
26981;SDS011;14533;50.848;4.380;2022-12-05T03:15:07;99.88;;;38.88;;
26981;SDS011;14533;50.848;4.380;2022-12-05T03:17:44;101.22;;;39.20;;
26981;SDS011;14533;50.848;4.380;2022-12-05T03:20:19;93.95;;;36.25;;
26981;SDS011;14533;50.848;4.380;2022-12-05T03:22:59;91.70;;;36.67;;
26981;SDS011;14533;50.848;4.380;2022-12-05T03:31:38;98.18;;;37.25;;
26981;SDS011;14533;50.848;4.380;2022-12-05T03:34:10;94.28;;;36.20;;
26981;SDS011;14533;50.848;4.380;2022-12-05T03:36:44;92.57;;;36.00;;
26981;SDS011;14533;50.848;4.380;2022-12-05T03:39:23;90.88;;;36.55;;
26981;SDS011;14533;50.848;4.380;2022-12-05T03:42:12;89.38;;;35.33;;
26981;SDS011;14533;50.848;4.380;2022-12-05T03:44:48;88.78;;;34.72;;
26981;SDS011;14533;50.848;4.380;2022-12-05T03:48:17;91.90;;;35.35;;
26981;SDS011;14533;50.848;4.380;2022-12-05T03:50:38;84.50;;;35.42;;
26981;SDS011;14533;50.848;4.380;2022-12-05T03:53:09;79.65;;;34.13;;
26981;SDS011;14533;50.848;4.380;2022-12-05T03:55:40;85.45;;;36.08;;
26981;SDS011;14533;50.848;4.380;2022-12-05T03:58:10;88.03;;;35.42;;
26981;SDS011;14533;50.848;4.380;2022-12-05T04:00:44;84.82;;;34.63;;
26981;SDS011;14533;50.848;4.380;2022-12-05T04:03:17;82.97;;;35.38;;
26981;SDS011;14533;50.848;4.380;2022-12-05T04:05:52;74.15;;;33.58;;
26981;SDS011;14533;50.848;4.380;2022-12-05T04:08:24;76.95;;;33.13;;
26981;SDS011;14533;50.848;4.380;2022-12-05T04:10:59;72.75;;;32.90;;
26981;SDS011;14533;50.848;4.380;2022-12-05T04:16:57;76.10;;;32.10;;
26981;SDS011;14533;50.848;4.380;2022-12-05T04:22:30;90.65;;;32.60;;
26981;SDS011;14533;50.848;4.380;2022-12-05T04:24:58;82.43;;;35.33;;
26981;SDS011;14533;50.848;4.380;2022-12-05T04:30:39;74.63;;;32.10;;
26981;SDS011;14533;50.848;4.380;2022-12-05T04:38:18;63.92;;;28.55;;
26981;SDS011;14533;50.848;4.380;2022-12-05T04:40:59;69.80;;;29.05;;
26981;SDS011;14533;50.848;4.380;2022-12-05T04:43:35;65.20;;;28.75;;
26981;SDS011;14533;50.848;4.380;2022-12-05T04:46:04;68.05;;;29.63;;
26981;SDS011;14533;50.848;4.380;2022-12-05T04:48:32;66.75;;;29.10;;
26981;SDS011;14533;50.848;4.380;2022-12-05T04:51:02;73.95;;;30.98;;
26981;SDS011;14533;50.848;4.380;2022-12-05T04:53:32;68.95;;;30.73;;
26981;SDS011;14533;50.848;4.380;2022-12-05T04:56:01;67.65;;;32.30;;
26981;SDS011;14533;50.848;4.380;2022-12-05T04:58:28;63.35;;;29.63;;
26981;SDS011;14533;50.848;4.380;2022-12-05T05:03:39;71.50;;;30.92;;
26981;SDS011;14533;50.848;4.380;2022-12-05T05:06:14;74.45;;;32.17;;
26981;SDS011;14533;50.848;4.380;2022-12-05T05:08:51;72.90;;;31.08;;
26981;SDS011;14533;50.848;4.380;2022-12-05T05:11:19;70.78;;;32.10;;
26981;SDS011;14533;50.848;4.380;2022-12-05T05:13:54;75.38;;;33.13;;
26981;SDS011;14533;50.848;4.380;2022-12-05T05:18:51;75.63;;;32.30;;
26981;SDS011;14533;50.848;4.380;2022-12-05T05:21:19;74.95;;;33.85;;
26981;SDS011;14533;50.848;4.380;2022-12-05T05:23:53;72.85;;;32.55;;
26981;SDS011;14533;50.848;4.380;2022-12-05T05:26:20;75.75;;;33.85;;
26981;SDS011;14533;50.848;4.380;2022-12-05T05:28:47;80.78;;;33.75;;
26981;SDS011;14533;50.848;4.380;2022-12-05T05:31:14;73.72;;;33.90;;
26981;SDS011;14533;50.848;4.380;2022-12-05T05:33:42;70.53;;;32.55;;
26981;SDS011;14533;50.848;4.380;2022-12-05T05:36:08;76.22;;;33.08;;
26981;SDS011;14533;50.848;4.380;2022-12-05T05:38:37;71.88;;;32.90;;
26981;SDS011;14533;50.848;4.380;2022-12-05T05:41:03;73.30;;;32.90;;
26981;SDS011;14533;50.848;4.380;2022-12-05T05:43:31;69.43;;;33.42;;
26981;SDS011;14533;50.848;4.380;2022-12-05T05:45:56;76.38;;;34.90;;
26981;SDS011;14533;50.848;4.380;2022-12-05T05:48:22;79.97;;;34.47;;
26981;SDS011;14533;50.848;4.380;2022-12-05T05:50:48;78.20;;;34.30;;
26981;SDS011;14533;50.848;4.380;2022-12-05T05:53:16;81.60;;;35.47;;
26981;SDS011;14533;50.848;4.380;2022-12-05T05:55:42;82.47;;;35.13;;
26981;SDS011;14533;50.848;4.380;2022-12-05T05:58:08;82.35;;;35.85;;
26981;SDS011;14533;50.848;4.380;2022-12-05T06:00:34;78.18;;;33.58;;
26981;SDS011;14533;50.848;4.380;2022-12-05T06:02:59;87.25;;;36.95;;
26981;SDS011;14533;50.848;4.380;2022-12-05T06:05:26;80.95;;;34.53;;
26981;SDS011;14533;50.848;4.380;2022-12-05T06:07:52;73.82;;;34.22;;
26981;SDS011;14533;50.848;4.380;2022-12-05T06:10:17;72.18;;;32.65;;
26981;SDS011;14533;50.848;4.380;2022-12-05T06:12:44;81.15;;;35.75;;
26981;SDS011;14533;50.848;4.380;2022-12-05T06:15:10;85.40;;;35.40;;
26981;SDS011;14533;50.848;4.380;2022-12-05T06:17:36;87.22;;;34.63;;
26981;SDS011;14533;50.848;4.380;2022-12-05T06:20:02;84.85;;;34.63;;
26981;SDS011;14533;50.848;4.380;2022-12-05T06:22:31;84.82;;;34.88;;
26981;SDS011;14533;50.848;4.380;2022-12-05T06:24:57;76.95;;;33.95;;
26981;SDS011;14533;50.848;4.380;2022-12-05T06:27:23;77.57;;;34.38;;
26981;SDS011;14533;50.848;4.380;2022-12-05T06:29:49;85.88;;;36.35;;
26981;SDS011;14533;50.848;4.380;2022-12-05T06:32:14;87.10;;;35.65;;
26981;SDS011;14533;50.848;4.380;2022-12-05T06:34:41;76.93;;;33.05;;
26981;SDS011;14533;50.848;4.380;2022-12-05T06:37:08;81.53;;;34.58;;
26981;SDS011;14533;50.848;4.380;2022-12-05T06:39:34;79.25;;;33.78;;
26981;SDS011;14533;50.848;4.380;2022-12-05T06:42:00;78.93;;;33.63;;
26981;SDS011;14533;50.848;4.380;2022-12-05T06:44:26;74.30;;;31.35;;
26981;SDS011;14533;50.848;4.380;2022-12-05T06:46:55;69.70;;;32.42;;
26981;SDS011;14533;50.848;4.380;2022-12-05T06:49:21;68.97;;;31.88;;
26981;SDS011;14533;50.848;4.380;2022-12-05T06:51:50;79.60;;;32.25;;
26981;SDS011;14533;50.848;4.380;2022-12-05T06:54:20;69.82;;;32.80;;
26981;SDS011;14533;50.848;4.380;2022-12-05T06:56:45;78.63;;;32.70;;
26981;SDS011;14533;50.848;4.380;2022-12-05T06:59:11;75.93;;;32.38;;
26981;SDS011;14533;50.848;4.380;2022-12-05T07:01:37;69.85;;;32.40;;
26981;SDS011;14533;50.848;4.380;2022-12-05T07:04:03;82.13;;;34.53;;
26981;SDS011;14533;50.848;4.380;2022-12-05T07:06:31;80.18;;;35.80;;
26981;SDS011;14533;50.848;4.380;2022-12-05T07:08:57;74.57;;;33.35;;
26981;SDS011;14533;50.848;4.380;2022-12-05T07:11:23;80.15;;;34.03;;
26981;SDS011;14533;50.848;4.380;2022-12-05T07:13:49;69.18;;;33.05;;
26981;SDS011;14533;50.848;4.380;2022-12-05T07:16:14;69.18;;;30.48;;
26981;SDS011;14533;50.848;4.380;2022-12-05T07:18:40;71.97;;;33.28;;
26981;SDS011;14533;50.848;4.380;2022-12-05T07:21:06;67.40;;;30.85;;
26981;SDS011;14533;50.848;4.380;2022-12-05T07:23:36;74.07;;;30.42;;
26981;SDS011;14533;50.848;4.380;2022-12-05T07:26:11;67.65;;;30.42;;
26981;SDS011;14533;50.848;4.380;2022-12-05T07:28:38;74.47;;;32.22;;
26981;SDS011;14533;50.848;4.380;2022-12-05T07:31:06;73.15;;;31.27;;
26981;SDS011;14533;50.848;4.380;2022-12-05T07:33:33;66.30;;;31.88;;
26981;SDS011;14533;50.848;4.380;2022-12-05T07:36:00;74.07;;;33.20;;
26981;SDS011;14533;50.848;4.380;2022-12-05T07:38:28;75.55;;;33.97;;
26981;SDS011;14533;50.848;4.380;2022-12-05T07:40:54;77.07;;;33.47;;
26981;SDS011;14533;50.848;4.380;2022-12-05T07:43:20;71.05;;;33.05;;
26981;SDS011;14533;50.848;4.380;2022-12-05T07:45:45;70.43;;;32.28;;
26981;SDS011;14533;50.848;4.380;2022-12-05T07:48:13;83.32;;;32.53;;
26981;SDS011;14533;50.848;4.380;2022-12-05T07:50:41;73.30;;;33.85;;
26981;SDS011;14533;50.848;4.380;2022-12-05T07:53:10;79.13;;;32.92;;
26981;SDS011;14533;50.848;4.380;2022-12-05T07:55:36;78.20;;;33.22;;
26981;SDS011;14533;50.848;4.380;2022-12-05T07:58:02;71.68;;;31.55;;
26981;SDS011;14533;50.848;4.380;2022-12-05T08:00:30;72.95;;;33.22;;
26981;SDS011;14533;50.848;4.380;2022-12-05T08:02:56;80.63;;;34.72;;
26981;SDS011;14533;50.848;4.380;2022-12-05T08:05:21;84.35;;;35.30;;
26981;SDS011;14533;50.848;4.380;2022-12-05T08:07:47;78.80;;;32.58;;
26981;SDS011;14533;50.848;4.380;2022-12-05T08:10:13;77.28;;;33.15;;
26981;SDS011;14533;50.848;4.380;2022-12-05T08:12:38;73.57;;;33.80;;
26981;SDS011;14533;50.848;4.380;2022-12-05T08:15:04;75.63;;;32.70;;
26981;SDS011;14533;50.848;4.380;2022-12-05T08:17:30;69.88;;;30.63;;
26981;SDS011;14533;50.848;4.380;2022-12-05T08:19:57;72.78;;;31.75;;
26981;SDS011;14533;50.848;4.380;2022-12-05T08:22:23;69.22;;;30.17;;
26981;SDS011;14533;50.848;4.380;2022-12-05T08:24:49;65.00;;;29.92;;
26981;SDS011;14533;50.848;4.380;2022-12-05T08:27:14;68.75;;;29.67;;
26981;SDS011;14533;50.848;4.380;2022-12-05T08:29:41;63.03;;;30.30;;
26981;SDS011;14533;50.848;4.380;2022-12-05T08:32:08;70.28;;;32.03;;
26981;SDS011;14533;50.848;4.380;2022-12-05T08:34:33;65.25;;;30.65;;
26981;SDS011;14533;50.848;4.380;2022-12-05T08:36:59;69.90;;;31.40;;
26981;SDS011;14533;50.848;4.380;2022-12-05T08:39:24;70.90;;;31.27;;
26981;SDS011;14533;50.848;4.380;2022-12-05T08:41:51;63.95;;;27.92;;
26981;SDS011;14533;50.848;4.380;2022-12-05T08:44:17;70.13;;;30.92;;
26981;SDS011;14533;50.848;4.380;2022-12-05T08:46:44;63.03;;;29.40;;
26981;SDS011;14533;50.848;4.380;2022-12-05T08:49:14;66.13;;;29.75;;
26981;SDS011;14533;50.848;4.380;2022-12-05T08:51:41;55.13;;;26.73;;
26981;SDS011;14533;50.848;4.380;2022-12-05T08:54:09;69.65;;;29.30;;
26981;SDS011;14533;50.848;4.380;2022-12-05T08:56:35;62.53;;;30.10;;
26981;SDS011;14533;50.848;4.380;2022-12-05T08:59:02;59.60;;;30.08;;
26981;SDS011;14533;50.848;4.380;2022-12-05T09:01:28;66.55;;;30.15;;
26981;SDS011;14533;50.848;4.380;2022-12-05T09:03:56;63.85;;;28.60;;
26981;SDS011;14533;50.848;4.380;2022-12-05T09:06:27;52.08;;;27.80;;
26981;SDS011;14533;50.848;4.380;2022-12-05T09:08:57;56.30;;;27.80;;
26981;SDS011;14533;50.848;4.380;2022-12-05T09:11:26;55.83;;;28.80;;
26981;SDS011;14533;50.848;4.380;2022-12-05T09:13:54;58.55;;;27.42;;
26981;SDS011;14533;50.848;4.380;2022-12-05T09:16:23;53.53;;;27.70;;
26981;SDS011;14533;50.848;4.380;2022-12-05T09:21:20;54.08;;;26.00;;
26981;SDS011;14533;50.848;4.380;2022-12-05T09:23:50;46.37;;;25.20;;
26981;SDS011;14533;50.848;4.380;2022-12-05T09:26:17;57.45;;;26.13;;
26981;SDS011;14533;50.848;4.380;2022-12-05T09:28:44;49.22;;;24.85;;
26981;SDS011;14533;50.848;4.380;2022-12-05T09:31:11;44.15;;;24.70;;
26981;SDS011;14533;50.848;4.380;2022-12-05T09:33:40;41.83;;;22.02;;
26981;SDS011;14533;50.848;4.380;2022-12-05T09:36:08;48.30;;;25.08;;
26981;SDS011;14533;50.848;4.380;2022-12-05T09:38:39;37.03;;;23.35;;
26981;SDS011;14533;50.848;4.380;2022-12-05T09:44:12;40.53;;;21.75;;
26981;SDS011;14533;50.848;4.380;2022-12-05T09:47:03;28.17;;;15.82;;
26981;SDS011;14533;50.848;4.380;2022-12-05T09:49:42;43.47;;;21.20;;
26981;SDS011;14533;50.848;4.380;2022-12-05T09:52:21;44.08;;;20.13;;
26981;SDS011;14533;50.848;4.380;2022-12-05T09:55:08;35.63;;;20.88;;
26981;SDS011;14533;50.848;4.380;2022-12-05T09:57:42;33.92;;;18.73;;
26981;SDS011;14533;50.848;4.380;2022-12-05T10:00:11;34.75;;;19.27;;
26981;SDS011;14533;50.848;4.380;2022-12-05T10:08:37;32.17;;;17.92;;
26981;SDS011;14533;50.848;4.380;2022-12-05T10:11:17;30.48;;;18.17;;
26981;SDS011;14533;50.848;4.380;2022-12-05T10:14:11;31.92;;;16.75;;
26981;SDS011;14533;50.848;4.380;2022-12-05T10:17:15;28.00;;;16.92;;
26981;SDS011;14533;50.848;4.380;2022-12-05T10:19:57;31.52;;;18.75;;
26981;SDS011;14533;50.848;4.380;2022-12-05T10:22:32;35.75;;;19.23;;
26981;SDS011;14533;50.848;4.380;2022-12-05T10:25:17;35.97;;;18.73;;
26981;SDS011;14533;50.848;4.380;2022-12-05T10:27:47;32.67;;;18.30;;
26981;SDS011;14533;50.848;4.380;2022-12-05T10:30:23;31.98;;;19.35;;
26981;SDS011;14533;50.848;4.380;2022-12-05T10:35:36;30.23;;;18.95;;
26981;SDS011;14533;50.848;4.380;2022-12-05T10:38:11;37.58;;;20.90;;
26981;SDS011;14533;50.848;4.380;2022-12-05T10:40:44;49.13;;;19.85;;
26981;SDS011;14533;50.848;4.380;2022-12-05T10:43:15;36.63;;;20.40;;
26981;SDS011;14533;50.848;4.380;2022-12-05T10:48:18;34.70;;;18.75;;
26981;SDS011;14533;50.848;4.380;2022-12-05T10:50:46;49.83;;;20.05;;
26981;SDS011;14533;50.848;4.380;2022-12-05T10:53:16;36.72;;;18.63;;
26981;SDS011;14533;50.848;4.380;2022-12-05T10:55:48;35.58;;;20.77;;
26981;SDS011;14533;50.848;4.380;2022-12-05T11:00:50;31.17;;;17.33;;
26981;SDS011;14533;50.848;4.380;2022-12-05T11:03:26;24.35;;;15.75;;
26981;SDS011;14533;50.848;4.380;2022-12-05T11:05:53;24.73;;;15.93;;
26981;SDS011;14533;50.848;4.380;2022-12-05T11:08:31;22.75;;;15.20;;
26981;SDS011;14533;50.848;4.380;2022-12-05T11:13:30;28.25;;;17.33;;
26981;SDS011;14533;50.848;4.380;2022-12-05T11:15:57;31.98;;;17.80;;
26981;SDS011;14533;50.848;4.380;2022-12-05T11:20:56;30.73;;;17.90;;
26981;SDS011;14533;50.848;4.380;2022-12-05T11:23:36;22.08;;;12.93;;
26981;SDS011;14533;50.848;4.380;2022-12-05T11:26:03;30.63;;;19.27;;
26981;SDS011;14533;50.848;4.380;2022-12-05T11:28:38;34.67;;;20.70;;
26981;SDS011;14533;50.848;4.380;2022-12-05T11:31:25;29.73;;;17.58;;
26981;SDS011;14533;50.848;4.380;2022-12-05T11:34:00;26.42;;;17.33;;
26981;SDS011;14533;50.848;4.380;2022-12-05T11:36:36;27.67;;;17.65;;
26981;SDS011;14533;50.848;4.380;2022-12-05T11:39:08;31.80;;;18.92;;
26981;SDS011;14533;50.848;4.380;2022-12-05T11:44:37;29.90;;;16.45;;
26981;SDS011;14533;50.848;4.380;2022-12-05T11:52:53;40.95;;;17.00;;
26981;SDS011;14533;50.848;4.380;2022-12-05T11:55:41;26.95;;;16.45;;
26981;SDS011;14533;50.848;4.380;2022-12-05T12:10:06;29.85;;;18.88;;
26981;SDS011;14533;50.848;4.380;2022-12-05T12:12:55;22.27;;;15.57;;
26981;SDS011;14533;50.848;4.380;2022-12-05T12:15:32;26.17;;;16.35;;
26981;SDS011;14533;50.848;4.380;2022-12-05T12:34:45;30.25;;;17.98;;
26981;SDS011;14533;50.848;4.380;2022-12-05T12:37:33;27.23;;;17.50;;
26981;SDS011;14533;50.848;4.380;2022-12-05T12:40:55;34.05;;;19.50;;
26981;SDS011;14533;50.848;4.380;2022-12-05T12:49:33;35.67;;;22.63;;
26981;SDS011;14533;50.848;4.380;2022-12-05T12:52:14;30.65;;;18.25;;
26981;SDS011;14533;50.848;4.380;2022-12-05T13:03:21;33.38;;;20.05;;
26981;SDS011;14533;50.848;4.380;2022-12-05T13:08:47;33.25;;;18.83;;
26981;SDS011;14533;50.848;4.380;2022-12-05T13:11:18;34.00;;;19.90;;
26981;SDS011;14533;50.848;4.380;2022-12-05T13:13:50;36.75;;;20.67;;
26981;SDS011;14533;50.848;4.380;2022-12-05T13:16:39;32.13;;;19.63;;
26981;SDS011;14533;50.848;4.380;2022-12-05T13:19:18;30.08;;;18.10;;
26981;SDS011;14533;50.848;4.380;2022-12-05T13:21:52;30.83;;;18.17;;
26981;SDS011;14533;50.848;4.380;2022-12-05T13:24:21;27.63;;;17.83;;
26981;SDS011;14533;50.848;4.380;2022-12-05T13:26:50;34.38;;;19.23;;
26981;SDS011;14533;50.848;4.380;2022-12-05T13:29:21;35.92;;;19.85;;
26981;SDS011;14533;50.848;4.380;2022-12-05T13:32:04;35.47;;;20.98;;
26981;SDS011;14533;50.848;4.380;2022-12-05T13:34:47;31.05;;;18.60;;
26981;SDS011;14533;50.848;4.380;2022-12-05T13:40:20;31.90;;;18.52;;
26981;SDS011;14533;50.848;4.380;2022-12-05T13:43:10;30.50;;;18.88;;
26981;SDS011;14533;50.848;4.380;2022-12-05T13:45:39;32.35;;;20.10;;
26981;SDS011;14533;50.848;4.380;2022-12-05T13:48:10;30.52;;;18.48;;
26981;SDS011;14533;50.848;4.380;2022-12-05T13:53:31;26.83;;;17.13;;
26981;SDS011;14533;50.848;4.380;2022-12-05T14:08:58;35.92;;;21.42;;
26981;SDS011;14533;50.848;4.380;2022-12-05T14:11:28;35.40;;;19.85;;
26981;SDS011;14533;50.848;4.380;2022-12-05T14:13:55;37.47;;;21.83;;
26981;SDS011;14533;50.848;4.380;2022-12-05T14:19:05;36.00;;;22.33;;
26981;SDS011;14533;50.848;4.380;2022-12-05T14:21:59;34.00;;;20.30;;
26981;SDS011;14533;50.848;4.380;2022-12-05T14:25:00;32.95;;;20.05;;
26981;SDS011;14533;50.848;4.380;2022-12-05T14:30:29;38.03;;;21.88;;
26981;SDS011;14533;50.848;4.380;2022-12-05T14:33:20;37.45;;;22.02;;
26981;SDS011;14533;50.848;4.380;2022-12-05T14:35:48;37.28;;;21.67;;
26981;SDS011;14533;50.848;4.380;2022-12-05T14:38:34;35.17;;;20.20;;
26981;SDS011;14533;50.848;4.380;2022-12-05T14:44:03;37.20;;;19.73;;
26981;SDS011;14533;50.848;4.380;2022-12-05T14:46:42;32.25;;;19.98;;
26981;SDS011;14533;50.848;4.380;2022-12-05T14:52:17;33.88;;;19.52;;
26981;SDS011;14533;50.848;4.380;2022-12-05T14:54:46;27.98;;;18.33;;
26981;SDS011;14533;50.848;4.380;2022-12-05T14:57:13;36.60;;;22.00;;
26981;SDS011;14533;50.848;4.380;2022-12-05T15:02:31;35.35;;;20.95;;
26981;SDS011;14533;50.848;4.380;2022-12-05T15:07:38;49.20;;;24.40;;
26981;SDS011;14533;50.848;4.380;2022-12-05T15:10:05;51.20;;;27.27;;
26981;SDS011;14533;50.848;4.380;2022-12-05T15:26:24;47.80;;;27.27;;
26981;SDS011;14533;50.848;4.380;2022-12-05T15:31:34;55.28;;;29.30;;
26981;SDS011;14533;50.848;4.380;2022-12-05T15:37:01;58.13;;;29.70;;
26981;SDS011;14533;50.848;4.380;2022-12-05T15:42:26;60.65;;;30.02;;
26981;SDS011;14533;50.848;4.380;2022-12-05T15:50:13;58.00;;;32.22;;
26981;SDS011;14533;50.848;4.380;2022-12-05T15:52:41;66.30;;;33.78;;
26981;SDS011;14533;50.848;4.380;2022-12-05T15:57:47;68.07;;;32.03;;
26981;SDS011;14533;50.848;4.380;2022-12-05T16:00:17;65.05;;;31.75;;
26981;SDS011;14533;50.848;4.380;2022-12-05T16:02:55;67.32;;;33.92;;
26981;SDS011;14533;50.848;4.380;2022-12-05T16:05:29;71.22;;;33.28;;
26981;SDS011;14533;50.848;4.380;2022-12-05T16:08:06;70.50;;;36.20;;
26981;SDS011;14533;50.848;4.380;2022-12-05T16:10:32;78.15;;;38.03;;
26981;SDS011;14533;50.848;4.380;2022-12-05T16:13:13;71.43;;;35.55;;
26981;SDS011;14533;50.848;4.380;2022-12-05T16:15:47;80.07;;;36.83;;
26981;SDS011;14533;50.848;4.380;2022-12-05T16:18:28;87.70;;;39.92;;
26981;SDS011;14533;50.848;4.380;2022-12-05T16:20:55;84.65;;;40.25;;
26981;SDS011;14533;50.848;4.380;2022-12-05T16:23:26;88.78;;;40.22;;
26981;SDS011;14533;50.848;4.380;2022-12-05T16:26:09;76.65;;;37.92;;
26981;SDS011;14533;50.848;4.380;2022-12-05T16:29:00;83.82;;;38.55;;
26981;SDS011;14533;50.848;4.380;2022-12-05T16:31:30;91.72;;;39.47;;
26981;SDS011;14533;50.848;4.380;2022-12-05T16:34:06;76.23;;;36.23;;
26981;SDS011;14533;50.848;4.380;2022-12-05T16:36:44;81.40;;;39.72;;
26981;SDS011;14533;50.848;4.380;2022-12-05T16:39:14;87.47;;;41.95;;
26981;SDS011;14533;50.848;4.380;2022-12-05T16:41:41;77.47;;;37.70;;
26981;SDS011;14533;50.848;4.380;2022-12-05T16:44:35;90.10;;;39.63;;
26981;SDS011;14533;50.848;4.380;2022-12-05T16:47:16;75.45;;;37.67;;
26981;SDS011;14533;50.848;4.380;2022-12-05T16:49:49;78.60;;;37.30;;
26981;SDS011;14533;50.848;4.380;2022-12-05T16:52:15;70.40;;;36.55;;
26981;SDS011;14533;50.848;4.380;2022-12-05T16:54:44;76.82;;;37.17;;
26981;SDS011;14533;50.848;4.380;2022-12-05T16:57:13;71.35;;;37.42;;
26981;SDS011;14533;50.848;4.380;2022-12-05T16:59:41;79.18;;;37.40;;
26981;SDS011;14533;50.848;4.380;2022-12-05T17:02:13;76.25;;;39.67;;
26981;SDS011;14533;50.848;4.380;2022-12-05T17:04:48;71.47;;;34.60;;
26981;SDS011;14533;50.848;4.380;2022-12-05T17:07:16;70.28;;;36.88;;
26981;SDS011;14533;50.848;4.380;2022-12-05T17:09:42;67.70;;;35.53;;
26981;SDS011;14533;50.848;4.380;2022-12-05T17:12:21;75.20;;;35.50;;
26981;SDS011;14533;50.848;4.380;2022-12-05T17:14:49;115.53;;;40.17;;
26981;SDS011;14533;50.848;4.380;2022-12-05T17:17:14;77.88;;;35.47;;
26981;SDS011;14533;50.848;4.380;2022-12-05T17:19:42;74.43;;;38.53;;
26981;SDS011;14533;50.848;4.380;2022-12-05T17:22:11;72.25;;;37.45;;
26981;SDS011;14533;50.848;4.380;2022-12-05T17:24:40;61.72;;;34.47;;
26981;SDS011;14533;50.848;4.380;2022-12-05T17:27:10;65.00;;;32.80;;
26981;SDS011;14533;50.848;4.380;2022-12-05T17:29:36;61.70;;;32.63;;
26981;SDS011;14533;50.848;4.380;2022-12-05T17:32:04;67.47;;;34.15;;
26981;SDS011;14533;50.848;4.380;2022-12-05T17:34:30;66.18;;;34.55;;
26981;SDS011;14533;50.848;4.380;2022-12-05T17:36:56;72.20;;;37.15;;
26981;SDS011;14533;50.848;4.380;2022-12-05T17:39:22;70.85;;;35.90;;
26981;SDS011;14533;50.848;4.380;2022-12-05T17:41:48;66.75;;;34.60;;
26981;SDS011;14533;50.848;4.380;2022-12-05T17:44:16;76.05;;;37.22;;
26981;SDS011;14533;50.848;4.380;2022-12-05T17:46:43;70.03;;;37.80;;
26981;SDS011;14533;50.848;4.380;2022-12-05T17:49:11;79.05;;;38.58;;
26981;SDS011;14533;50.848;4.380;2022-12-05T17:51:38;71.30;;;36.42;;
26981;SDS011;14533;50.848;4.380;2022-12-05T17:54:05;65.68;;;33.65;;
26981;SDS011;14533;50.848;4.380;2022-12-05T17:56:31;69.63;;;34.45;;
26981;SDS011;14533;50.848;4.380;2022-12-05T17:58:59;69.47;;;35.50;;